Report METAR

 


LIBF - Foggia/Gino Lisa, Italy
Distance from station: NE 23km
Dati ricevuti: 21/06/2024 22:50
DATI Obsoleti
Sereno
Sereno
 Vento da NO
Vento: NO 9 km/h
Temperatura: 27°C
Indice di Calore: 28°C
P.to Rugiada: 19°C
Umidità: 62%
Barometro: 1012 hPa
Summary: Sereno
Visibility: superiore a 10 km
2024/06/21 20:50 LIBF 212050Z 32005KT CAVOK 27/19 Q1012
LIRT - Trevico, Italy
Distance from station: SSO 28km
Dati ricevuti: 21/06/2024 22:55
DATI Obsoleti

 Vento da O
Vento: O 17 km/h
Temperatura: 25°C
P.to Rugiada: 13°C
Umidità: 47%
Barometro: 1020 hPa
2024/06/21 20:55 LIRT 212055Z AUTO 26009KT //// 25/13 Q1020
LIBA - Amendola (it-Afb, Italy
Distance from station: NE 42km
Dati ricevuti: 22/06/2024 03:55
Sereno
Sereno
 Vento da SSE
Vento: SSE 6 km/h
Temperatura: 23°C
P.to Rugiada: 21°C
Umidità: 89%
Barometro: 1010 hPa
Summary: Sereno
Visibility: superiore a 10 km
2024/06/22 01:55 LIBA 220155Z 15003KT CAVOK 23/21 Q1010
 
LIRI - Pontecagnano (af, Italy
Distance from station: SSO 81km
Dati ricevuti: 21/06/2024 18:50
DATI Obsoleti
Sereno
Sereno
 Vento da SO
Vento: SO 6 km/h
Temperatura: 30°C
Indice di Calore: 33°C
P.to Rugiada: 21°C
Umidità: 59%
Barometro: 1013 hPa
Summary: Sereno
Visibility: superiore a 10 km
2024/06/21 16:50 LIRI 211650Z 22003KT 180V250 CAVOK 30/21 Q1013
LIRN - Naples/Capodichi, Italy
Distance from station: OSO 96km
Dati ricevuti: 22/06/2024 04:20
Sereno
Sereno
 Vento da SSO
Vento: SSO 6 km/h
Temperatura: 24°C
P.to Rugiada: 20°C
Umidità: 78%
Barometro: 1013 hPa
Summary: Sereno
Visibility: superiore a 10 km
2024/06/22 02:20 LIRN 220220Z 20003KT 150V230 CAVOK 24/20 Q1013 NOSIG
LIRM - Grazzanise (it-A, Italy
Distance from station: OSO 109km
Dati ricevuti: 22/06/2024 03:55
Sereno
Sereno
 Vento da ESE
Vento: ESE 7 km/h
Temperatura: 22°C
P.to Rugiada: 21°C
Umidità: 94%
Barometro: 1012 hPa
Summary: Sereno
Visibility: superiore a 10 km
2024/06/22 01:55 LIRM 220155Z 11004KT CAVOK 22/21 Q1012
 
LIBD - Bari/Palese Macc, Italy
Distance from station: E 121km
Dati ricevuti: 22/06/2024 04:20
Sereno
Sereno
 Vento da OSO
Vento: OSO 4 km/h
Temperatura: 22°C
P.to Rugiada: 18°C
Umidità: 78%
Barometro: 1010 hPa
Summary: Sereno
Visibility: superiore a 10 km
2024/06/22 02:20 LIBD 220220Z 24002KT CAVOK 22/18 Q1010
LIQC - Capri Island, Italy
Distance from station: SO 124km
Dati ricevuti: 21/06/2024 22:55
DATI Obsoleti
Sereno
Sereno
 Vento da calmo
Vento: Calma
Temperatura: 26°C
P.to Rugiada: 17°C
Umidità: 58%
Barometro: 1014 hPa
Summary: Sereno
Visibility: superiore a 10 km
2024/06/21 20:55 LIQC 212055Z 00000KT CAVOK 26/17 Q1014 RMK SKC QUK / QUL / VIS MAR 12 KM VIS MIN 9999
LIBV - Gioia Del Colle, Italy
Distance from station: ESE 144km
Dati ricevuti: 22/06/2024 03:55
Sereno
Sereno
 Vento da S
Vento: S 4 km/h
Temperatura: 23°C
P.to Rugiada: 14°C
Umidità: 57%
Barometro: 1012 hPa
Summary: Sereno
Visibility: superiore a 10 km
2024/06/22 01:55 LIBV 220155Z 19002KT CAVOK 23/14 Q1012
 
LIBP - Pescara, Italy
Distance from station: NO 159km
Dati ricevuti: 22/06/2024 04:20
Sereno
Sereno
 Vento da SO
Vento: SO 9 km/h
Temperatura: 21°C
P.to Rugiada: 20°C
Umidità: 94%
Barometro: 1010 hPa
Nuvole: Sereno
Visibility: 10 km
2024/06/22 02:20 LIBP 220220Z AUTO 23005KT 9999 NCD 21/20 Q1010
LIBH - Marina Di Ginosa, Italy
Distance from station: SE 160km
Dati ricevuti: 21/06/2024 21:55
DATI Obsoleti

 Vento da ENE
Vento: ENE 7 km/h
Temperatura: 28°C
Indice di Calore: 32°C
P.to Rugiada: 24°C
Umidità: 79%
Barometro: 1011 hPa
2024/06/21 19:55 LIBH 211955Z AUTO 07004KT //// 28/24 Q1011
LIRH - Frosinone (it-Af, Italy
Distance from station: ONO 174km
Dati ricevuti: 21/06/2024 19:55
DATI Obsoleti
Nubi sparse
Nubi sparse
 Vento da SO
Vento: SO 4 km/h
Temperatura: 32°C
Indice di Calore: 34°C
P.to Rugiada: 20°C
Umidità: 49%
Barometro: 1013 hPa
Nuvole: Nubi sparse
Visibility: 7 km
Cloud details: Nubi sparse 1219 m
2024/06/21 17:55 LIRH 211755Z 22002KT 7000 FEW040 32/20 Q1013
 
LIBG - Grottaglie(Civ/A, Italy
Distance from station: ESE 192km
Dati ricevuti: 21/06/2024 19:50
DATI Obsoleti
Sereno
Sereno
 Vento da SSE
Vento: SSE 11 km/h
Temperatura: 34°C
P.to Rugiada: 12°C
Umidità: 26%
Barometro: 1012 hPa
Summary: Sereno
Visibility: superiore a 10 km
2024/06/21 17:50 LIBG 211750Z 16006KT CAVOK 34/12 Q1012
LIRL - Latina (it-Afb), Italy
Distance from station: O 205km
Dati ricevuti: 21/06/2024 19:55
DATI Obsoleti
Nubi sparse
Nubi sparse
 Vento da Variabile
Vento: Variabile 0 km/h
Temperatura: 29°C
Indice di Calore: 30°C
P.to Rugiada: 19°C
Umidità: 55%
Barometro: 1013 hPa
Nuvole: Nubi sparse
Visibility: 10 km
Cloud details: Nubi sparse 2134 m
2024/06/21 17:55 LIRL 211755Z /////KT 9999 FEW070 29/19 Q1013
LIBR - Brindisi/Casale, Italy
Distance from station: ESE 231km
Dati ricevuti: 22/06/2024 04:20
Sereno
Sereno
 Vento da Variabile
Vento: Variabile 4 km/h
Temperatura: 24°C
P.to Rugiada: 22°C
Umidità: 89%
Barometro: 1010 hPa
Summary: Sereno
Visibility: superiore a 10 km
2024/06/22 02:20 LIBR 220220Z VRB02KT CAVOK 24/22 Q1010
 
LIRG - Guidonia (it-Afb, Italy
Distance from station: ONO 232km
Dati ricevuti: 21/06/2024 19:55
DATI Obsoleti
Parz. nuvoloso
Parz. nuvoloso
 Vento da OSO
Vento: OSO 9 km/h
Temperatura: 30°C
Indice di Calore: 30°C
P.to Rugiada: 16°C
Umidità: 43%
Barometro: 1014 hPa
Nuvole: Parz. nuvoloso
Visibility: 10 km
Cloud details: Parz. nuvoloso 1067 m
2024/06/21 17:55 LIRG 211755Z 25005KT 9999 SCT035 30/16 Q1014 RMK BKN SCT200 MON NE LIB NC VIS MIN 9999 BLU
LIBQ - Scuro Mountain, Italy
Distance from station: SSE 235km
Dati ricevuti: 22/06/2024 03:55

 Vento da O
Vento: O 4 km/h
Temperatura: 22°C
P.to Rugiada: 12°C
Umidità: 53%
Barometro: 1023 hPa
2024/06/22 01:55 LIBQ 220155Z AUTO 27002KT //// 22/12 Q1023
LIRA - Ciampino(It-Afb/, Italy
Distance from station: ONO 236km
Dati ricevuti: 22/06/2024 04:20
Mist, Parz. nuvoloso
Mist, Parz. nuvoloso
 Vento da Variabile
Vento: Variabile 4 km/h
Temperatura: 21°C
P.to Rugiada: 20°C
Umidità: 94%
Barometro: 1013 hPa
Summary: Mist
Nuvole: Parz. nuvoloso
Visibility: 4 km
2024/06/22 02:20 LIRA 220220Z VRB02KT 4000 BR NSC 21/20 Q1013
 
LIQN - Rieti, Italy
Distance from station: ONO 243km
Dati ricevuti: 21/06/2024 19:50
DATI Obsoleti
Parz. nuvoloso
Parz. nuvoloso
 Vento da SSE
Vento: SSE 11 km/h
Temperatura: 29°C
Indice di Calore: 29°C
P.to Rugiada: 18°C
Umidità: 51%
Barometro: 1015 hPa
Nuvole: Parz. nuvoloso
Visibility: 9 km
2024/06/21 17:50 LIQN 211750Z 15006KT 9000 NSC 29/18 Q1015
LIRE - Pratica Di Mare(, Italy
Distance from station: O 246km
Dati ricevuti: 22/06/2024 03:55
Sereno
Sereno
 Vento da NO
Vento: NO 6 km/h
Temperatura: 23°C
P.to Rugiada: 16°C
Umidità: 65%
Barometro: 1011 hPa
Summary: Sereno
Visibility: superiore a 10 km
2024/06/22 01:55 LIRE 220155Z 32003KT CAVOK 23/16 Q1011